Time;durP1;ratioP1;P1;durP2;ratioP2;P2;SDS_P1;SDS_P2;PMS_P1;PMS_P2;Temp;Humidity;BMP_temperature;BMP_pressure;BME280_temperature;BME280_humidity;BME280_pressure;Samples;Min_cycle;Max_cycle;Signal;HPM_P1;HPM_P2
2021/08/20 00:01:54;;;;;;;8.13;4.20;;;;;;;;;;6148322;23;20195;-90
2021/08/20 00:05:00;;;;;;;7.60;3.80;;;;;;;;;;6147861;23;20177;-90
2021/08/20 00:08:06;;;;;;;7.53;3.65;;;;;;;;;;6145132;23;20247;-92
2021/08/20 00:11:11;;;;;;;8.18;4.10;;;;;;;;;;6147525;23;20203;-91
2021/08/20 00:14:16;;;;;;;7.78;3.95;;;;;;;;;;6147534;23;20189;-92
2021/08/20 00:17:25;;;;;;;10.07;3.83;;;;;;;;;;6147097;23;20160;-90
2021/08/20 00:20:31;;;;;;;8.68;3.88;;;;;;;;;;6145526;23;20176;-89
2021/08/20 00:23:36;;;;;;;5.65;3.47;;;;;;;;;;6146867;23;20497;-91
2021/08/20 00:26:42;;;;;;;6.13;3.50;;;;;;;;;;6153875;23;20164;-88
2021/08/20 00:29:47;;;;;;;7.22;3.70;;;;;;;;;;6151863;23;20169;-89
2021/08/20 00:32:54;;;;;;;9.25;4.30;;;;;;;;;;6146667;23;20176;-90
2021/08/20 00:36:01;;;;;;;7.72;3.85;;;;;;;;;;6147131;23;20180;-89
2021/08/20 00:39:06;;;;;;;8.57;3.85;;;;;;;;;;6145678;23;20903;-89
2021/08/20 00:42:11;;;;;;;7.18;3.42;;;;;;;;;;6146008;23;20169;-90
2021/08/20 00:45:16;;;;;;;9.10;3.72;;;;;;;;;;6147942;23;20168;-89
2021/08/20 00:48:21;;;;;;;7.97;4.25;;;;;;;;;;6146379;23;20187;-89
2021/08/20 00:51:30;;;;;;;6.05;3.92;;;;;;;;;;6146188;23;20212;-89
2021/08/20 00:54:35;;;;;;;13.00;4.03;;;;;;;;;;6144973;23;20172;-89
2021/08/20 00:57:42;;;;;;;11.52;3.95;;;;;;;;;;6146024;23;20161;-91
2021/08/20 01:00:48;;;;;;;9.73;4.03;;;;;;;;;;6147061;23;20239;-90
2021/08/20 01:03:53;;;;;;;6.20;3.72;;;;;;;;;;6145453;23;20779;-87
2021/08/20 01:07:01;;;;;;;5.53;3.70;;;;;;;;;;6146260;23;20176;-91
2021/08/20 01:10:07;;;;;;;9.15;3.78;;;;;;;;;;6145162;23;20182;-90
2021/08/20 01:13:12;;;;;;;7.90;4.00;;;;;;;;;;6146636;23;20176;-87
2021/08/20 01:16:17;;;;;;;6.43;4.00;;;;;;;;;;6146916;23;20196;-88
2021/08/20 01:19:22;;;;;;;9.57;4.03;;;;;;;;;;6145620;23;20227;-90
2021/08/20 01:22:29;;;;;;;11.10;5.07;;;;;;;;;;6146819;23;20171;-89
2021/08/20 01:25:37;;;;;;;7.32;4.15;;;;;;;;;;6147149;23;20164;-90
2021/08/20 01:28:42;;;;;;;7.70;4.30;;;;;;;;;;6145869;23;20176;-91
2021/08/20 01:31:48;;;;;;;10.07;4.68;;;;;;;;;;6146923;23;20192;-88
2021/08/20 01:34:53;;;;;;;9.20;4.32;;;;;;;;;;6146154;23;20550;-90
2021/08/20 01:37:59;;;;;;;10.43;4.70;;;;;;;;;;6147038;23;20285;-88
2021/08/20 01:41:06;;;;;;;19.95;11.60;;;;;;;;;;6147326;23;20173;-89
2021/08/20 01:44:11;;;;;;;7.68;4.13;;;;;;;;;;6145139;23;20251;-91
2021/08/20 01:47:16;;;;;;;7.53;4.13;;;;;;;;;;6145153;23;20180;-92
2021/08/20 01:50:21;;;;;;;7.68;4.07;;;;;;;;;;6145918;23;20164;-89
2021/08/20 01:53:26;;;;;;;7.10;4.15;;;;;;;;;;6163526;23;20211;-88
2021/08/20 01:56:34;;;;;;;7.28;3.95;;;;;;;;;;6147124;23;20184;-88
2021/08/20 01:59:44;;;;;;;7.82;4.03;;;;;;;;;;6147901;23;20172;-89
2021/08/20 02:02:54;;;;;;;10.45;4.10;;;;;;;;;;6147251;23;20168;-90
2021/08/20 02:05:59;;;;;;;8.95;3.30;;;;;;;;;;6148252;23;20168;-90
2021/08/20 02:09:04;;;;;;;9.10;3.60;;;;;;;;;;6147214;23;20172;-91
2021/08/20 02:12:13;;;;;;;8.27;4.20;;;;;;;;;;6147474;23;20191;-89
2021/08/20 02:15:34;;;;;;;9.23;4.00;;;;;;;;;;6147713;23;20170;-89
2021/08/20 02:18:39;;;;;;;13.27;4.40;;;;;;;;;;6147426;23;20159;-88
2021/08/20 02:21:44;;;;;;;11.90;4.43;;;;;;;;;;6146791;23;20502;-90
2021/08/20 02:24:58;;;;;;;8.45;4.53;;;;;;;;;;6147431;23;20173;-90
2021/08/20 02:28:04;;;;;;;6.07;4.25;;;;;;;;;;6147205;23;20253;-90
2021/08/20 02:31:10;;;;;;;6.90;4.30;;;;;;;;;;6147162;23;20171;-87
2021/08/20 02:34:17;;;;;;;7.95;3.70;;;;;;;;;;6147779;23;20263;-89
2021/08/20 02:37:21;;;;;;;9.55;3.80;;;;;;;;;;6147123;23;20196;-89
2021/08/20 02:40:29;;;;;;;8.40;4.30;;;;;;;;;;6147949;23;20176;-89
2021/08/20 02:43:35;;;;;;;8.32;4.13;;;;;;;;;;6147824;23;20172;-88
2021/08/20 02:46:41;;;;;;;7.90;4.10;;;;;;;;;;6147239;23;20243;-90
2021/08/20 02:49:46;;;;;;;9.05;4.22;;;;;;;;;;6147304;23;20169;-92
2021/08/20 02:52:52;;;;;;;8.60;4.32;;;;;;;;;;6148444;23;20196;-90
2021/08/20 02:56:02;;;;;;;8.18;4.40;;;;;;;;;;6147925;23;20173;-89
2021/08/20 02:59:27;;;;;;;9.00;4.43;;;;;;;;;;6165506;23;20212;-89
2021/08/20 03:02:36;;;;;;;7.68;4.22;;;;;;;;;;6147082;23;20244;-88
2021/08/20 03:05:43;;;;;;;11.45;5.13;;;;;;;;;;6147987;23;20180;-89
2021/08/20 03:08:48;;;;;;;9.90;5.28;;;;;;;;;;6147515;23;20513;-89
2021/08/20 03:11:55;;;;;;;14.02;5.18;;;;;;;;;;6148224;23;20172;-90
2021/08/20 03:15:02;;;;;;;10.95;4.60;;;;;;;;;;6148832;23;20172;-89
2021/08/20 03:18:11;;;;;;;9.32;4.88;;;;;;;;;;6146849;23;20624;-89
2021/08/20 03:21:16;;;;;;;12.35;4.78;;;;;;;;;;6148168;23;20229;-90
2021/08/20 03:24:29;;;;;;;9.43;4.88;;;;;;;;;;6147555;23;20173;-90
2021/08/20 03:27:34;;;;;;;12.30;5.03;;;;;;;;;;6146748;23;20256;-87
2021/08/20 03:31:01;;;;;;;8.77;5.10;;;;;;;;;;6166564;23;20595;-91
2021/08/20 03:34:09;;;;;;;8.18;4.30;;;;;;;;;;6146389;23;20263;-89
2021/08/20 03:37:16;;;;;;;6.47;4.72;;;;;;;;;;6147499;23;20177;-90
2021/08/20 03:40:24;;;;;;;7.25;4.22;;;;;;;;;;6148139;23;20242;-88
2021/08/20 03:43:34;;;;;;;7.43;4.88;;;;;;;;;;6147415;23;20493;-90
2021/08/20 03:46:52;;;;;;;7.18;4.88;;;;;;;;;;6147592;23;20172;-90
2021/08/20 03:50:02;;;;;;;9.05;4.63;;;;;;;;;;6148307;23;20173;-89
2021/08/20 03:53:10;;;;;;;9.73;4.45;;;;;;;;;;6146880;23;20193;-90
2021/08/20 03:56:15;;;;;;;14.20;5.50;;;;;;;;;;6146755;23;20176;-90
2021/08/20 03:59:20;;;;;;;8.52;5.00;;;;;;;;;;6165144;23;20616;-89
2021/08/20 04:02:32;;;;;;;8.90;5.18;;;;;;;;;;6144844;23;20192;-90
2021/08/20 04:05:38;;;;;;;13.10;5.20;;;;;;;;;;6146004;23;20168;-89
2021/08/20 04:08:49;;;;;;;12.75;5.25;;;;;;;;;;6147226;23;20176;-90
2021/08/20 04:12:31;;;;;;;11.95;5.55;;;;;;;;;;6166065;23;20675;-89
2021/08/20 04:15:49;;;;;;;10.95;5.68;;;;;;;;;;6147164;23;20172;-90
2021/08/20 04:18:57;;;;;;;8.13;5.43;;;;;;;;;;6146919;23;20169;-90
2021/08/20 04:22:03;;;;;;;7.00;4.85;;;;;;;;;;6148101;23;20168;-90
2021/08/20 04:25:08;;;;;;;28.45;8.07;;;;;;;;;;6149256;23;20168;-90
2021/08/20 04:28:32;;;;;;;11.45;5.10;;;;;;;;;;6164294;23;20196;-89
2021/08/20 04:31:47;;;;;;;9.68;5.20;;;;;;;;;;6146660;23;20172;-88
2021/08/20 04:35:08;;;;;;;11.32;4.40;;;;;;;;;;6148371;23;20475;-89
2021/08/20 04:38:39;;;;;;;12.50;4.60;;;;;;;;;;6165996;23;20176;-89
2021/08/20 04:42:06;;;;;;;10.15;4.35;;;;;;;;;;6146974;23;20241;-90
2021/08/20 04:45:21;;;;;;;10.93;4.13;;;;;;;;;;6145577;23;20169;-89
2021/08/20 04:48:40;;;;;;;5.47;4.10;;;;;;;;;;6147527;23;20227;-89
2021/08/20 04:51:53;;;;;;;7.63;4.10;;;;;;;;;;6164207;23;20184;-90
2021/08/20 04:55:06;;;;;;;7.95;3.60;;;;;;;;;;6146797;23;20173;-89
2021/08/20 04:58:11;;;;;;;9.43;4.18;;;;;;;;;;6147028;23;20164;-89
2021/08/20 05:01:16;;;;;;;9.93;4.35;;;;;;;;;;6145408;23;20196;-88
2021/08/20 05:04:24;;;;;;;6.47;4.28;;;;;;;;;;6148753;23;20604;-89
2021/08/20 05:07:31;;;;;;;13.23;5.20;;;;;;;;;;6148149;23;20172;-89
2021/08/20 05:10:36;;;;;;;11.43;3.70;;;;;;;;;;6149345;23;20284;-88
2021/08/20 05:13:41;;;;;;;5.38;4.03;;;;;;;;;;6148393;23;20192;-89
2021/08/20 05:16:48;;;;;;;9.77;4.43;;;;;;;;;;6149428;23;20176;-90
2021/08/20 05:19:53;;;;;;;6.60;3.78;;;;;;;;;;6147001;23;20223;-89
2021/08/20 05:22:59;;;;;;;5.65;3.90;;;;;;;;;;6147255;23;20164;-89
2021/08/20 05:26:04;;;;;;;10.00;3.85;;;;;;;;;;6149069;23;20272;-88
2021/08/20 05:29:09;;;;;;;11.30;4.32;;;;;;;;;;6150516;23;20168;-90
2021/08/20 05:32:14;;;;;;;7.18;4.18;;;;;;;;;;6147502;23;20167;-90
2021/08/20 05:35:26;;;;;;;6.55;4.30;;;;;;;;;;6152236;23;20159;-89
2021/08/20 05:38:34;;;;;;;15.82;4.70;;;;;;;;;;6155372;23;20169;-90
2021/08/20 08:31:04;;;;;;;;;;;;;;;;;;5347729;22;24024013;-90
2021/08/20 08:34:10;;;;;;;5.60;2.60;;;;;;;;;;6141333;23;20260;-91
2021/08/20 08:37:15;;;;;;;6.03;2.58;;;;;;;;;;6197582;23;20160;-91
2021/08/20 08:40:20;;;;;;;6.03;2.60;;;;;;;;;;6180626;23;20171;-90
2021/08/20 08:43:25;;;;;;;6.13;2.85;;;;;;;;;;6179916;23;20231;-91
2021/08/20 08:46:34;;;;;;;5.15;2.40;;;;;;;;;;6180482;23;20156;-91
2021/08/20 08:49:42;;;;;;;5.05;2.70;;;;;;;;;;6183130;23;20228;-90
2021/08/20 08:52:48;;;;;;;6.10;3.05;;;;;;;;;;6180375;23;20204;-90
2021/08/20 08:55:54;;;;;;;5.22;2.70;;;;;;;;;;6181154;23;20171;-89
2021/08/20 08:59:00;;;;;;;5.43;2.47;;;;;;;;;;6180809;23;20353;-90
2021/08/20 09:02:19;;;;;;;3.78;2.40;;;;;;;;;;6180510;23;20187;-90
2021/08/20 09:05:35;;;;;;;4.40;2.67;;;;;;;;;;6184064;23;20171;-91
2021/08/20 09:08:41;;;;;;;3.20;2.35;;;;;;;;;;6180601;23;20168;-91
2021/08/20 09:11:51;;;;;;;6.88;2.40;;;;;;;;;;6178789;23;20263;-89
2021/08/20 09:14:58;;;;;;;6.15;2.30;;;;;;;;;;6180879;23;20163;-90
2021/08/20 09:18:04;;;;;;;3.63;2.60;;;;;;;;;;6179555;23;20162;-91
2021/08/20 09:21:15;;;;;;;5.80;2.45;;;;;;;;;;6181219;23;20219;-90
2021/08/20 09:24:35;;;;;;;4.70;2.80;;;;;;;;;;6179373;23;20175;-90
2021/08/20 09:27:41;;;;;;;4.03;2.35;;;;;;;;;;6178213;23;20172;-91
2021/08/20 09:30:58;;;;;;;4.50;2.53;;;;;;;;;;6178527;23;20158;-92
2021/08/20 09:34:04;;;;;;;3.60;2.58;;;;;;;;;;6180897;23;20195;-92
2021/08/20 09:37:14;;;;;;;2.85;2.08;;;;;;;;;;6180157;23;20171;-91
2021/08/20 09:40:25;;;;;;;8.52;2.63;;;;;;;;;;6185170;23;20175;-92
2021/08/20 09:43:33;;;;;;;4.88;2.28;;;;;;;;;;6179693;23;20170;-91
2021/08/20 09:46:42;;;;;;;4.53;2.38;;;;;;;;;;6181805;23;20200;-92
2021/08/20 09:50:04;;;;;;;4.65;2.38;;;;;;;;;;6187874;23;20218;-91
2021/08/20 09:53:28;;;;;;;3.97;2.20;;;;;;;;;;6187885;23;20234;-91
2021/08/20 09:56:35;;;;;;;9.77;2.10;;;;;;;;;;6186003;23;20215;-93
2021/08/20 09:59:41;;;;;;;4.22;1.60;;;;;;;;;;6180688;23;20259;-92
2021/08/20 10:02:46;;;;;;;6.18;2.00;;;;;;;;;;6181796;23;20167;-90
2021/08/20 10:05:51;;;;;;;4.47;2.50;;;;;;;;;;6182294;23;20183;-91
2021/08/20 10:08:56;;;;;;;3.03;2.03;;;;;;;;;;6178853;23;20287;-90
2021/08/20 10:12:03;;;;;;;4.45;2.35;;;;;;;;;;6180246;23;20164;-92
2021/08/20 10:15:17;;;;;;;3.65;1.85;;;;;;;;;;6178796;23;20167;-91
2021/08/20 10:18:30;;;;;;;5.72;2.03;;;;;;;;;;6183452;23;20174;-91
2021/08/20 10:21:39;;;;;;;2.75;1.83;;;;;;;;;;6180185;23;20222;-90
2021/08/20 10:24:44;;;;;;;6.18;1.63;;;;;;;;;;6182646;23;20180;-90
2021/08/20 10:27:52;;;;;;;13.48;2.30;;;;;;;;;;6187949;23;20220;-90
2021/08/20 11:41:42;;;;;;;3.35;1.92;;;;;;;;;;6169289;23;20266;-90
2021/08/20 11:44:49;;;;;;;2.83;1.70;;;;;;;;;;6181665;23;20188;-91
2021/08/20 11:48:00;;;;;;;4.05;1.98;;;;;;;;;;6166930;23;20192;-90
2021/08/20 11:51:06;;;;;;;3.13;2.08;;;;;;;;;;6186768;23;20212;-90
2021/08/20 11:54:11;;;;;;;3.78;2.08;;;;;;;;;;6178414;23;20207;-89
2021/08/20 11:57:17;;;;;;;5.20;2.03;;;;;;;;;;6179862;23;20167;-90
2021/08/20 12:00:38;;;;;;;2.92;1.90;;;;;;;;;;6181653;23;20179;-90
2021/08/20 12:39:27;;;;;;;2.97;1.92;;;;;;;;;;6115290;23;20151;-92
2021/08/20 15:47:21;;;;;;;5.70;1.98;;;;;;;;;;6149422;23;20224;-88
2021/08/20 15:50:27;;;;;;;4.25;2.20;;;;;;;;;;6208139;23;20218;-89
2021/08/20 15:53:31;;;;;;;4.22;1.75;;;;;;;;;;6210330;23;20195;-91
2021/08/20 15:56:36;;;;;;;4.32;1.90;;;;;;;;;;6209556;23;20686;-89
2021/08/20 15:59:42;;;;;;;4.15;1.90;;;;;;;;;;6208214;23;20246;-88
2021/08/20 16:02:50;;;;;;;4.35;1.77;;;;;;;;;;6208851;23;20159;-89
2021/08/20 16:05:55;;;;;;;3.17;1.80;;;;;;;;;;6209456;23;20175;-90
2021/08/20 16:09:00;;;;;;;3.35;2.00;;;;;;;;;;6209406;23;20171;-89
2021/08/20 16:12:12;;;;;;;3.80;1.85;;;;;;;;;;6215036;23;20219;-90
2021/08/20 16:15:18;;;;;;;2.10;1.58;;;;;;;;;;6210309;23;20235;-90
2021/08/20 16:18:25;;;;;;;3.63;2.15;;;;;;;;;;6209253;23;20166;-89
2021/08/20 16:21:31;;;;;;;4.28;2.10;;;;;;;;;;6212624;23;20167;-88
2021/08/20 16:24:36;;;;;;;18.10;13.32;;;;;;;;;;6208687;23;20175;-91
2021/08/20 16:27:42;;;;;;;4.25;3.40;;;;;;;;;;6209349;23;20171;-91
2021/08/20 16:30:47;;;;;;;2.53;1.83;;;;;;;;;;6215888;23;20283;-88
2021/08/20 16:33:56;;;;;;;3.08;1.90;;;;;;;;;;6213074;23;20210;-89
2021/08/20 16:37:02;;;;;;;5.80;1.92;;;;;;;;;;6208418;23;20215;-90
2021/08/20 16:40:08;;;;;;;2.65;1.60;;;;;;;;;;6210600;23;20318;-90
2021/08/20 16:43:13;;;;;;;7.43;2.15;;;;;;;;;;6209870;23;20215;-91
2021/08/20 16:46:18;;;;;;;4.20;2.50;;;;;;;;;;6208412;23;20171;-89
2021/08/20 16:49:24;;;;;;;4.90;2.00;;;;;;;;;;6209024;23;20178;-91
2021/08/20 16:52:29;;;;;;;7.45;1.92;;;;;;;;;;6208087;23;20167;-90
2021/08/20 16:55:34;;;;;;;4.70;2.50;;;;;;;;;;6212102;23;20191;-90
2021/08/20 16:58:39;;;;;;;5.43;2.53;;;;;;;;;;6209861;23;20218;-92
2021/08/20 17:01:44;;;;;;;6.80;2.30;;;;;;;;;;6208298;23;20230;-91
2021/08/20 17:04:52;;;;;;;4.50;2.10;;;;;;;;;;6207616;23;20178;-90
2021/08/20 17:07:57;;;;;;;5.47;2.28;;;;;;;;;;6210817;23;20607;-90
2021/08/20 17:11:02;;;;;;;4.60;1.92;;;;;;;;;;6207420;23;20170;-91
2021/08/20 17:14:07;;;;;;;8.45;2.97;;;;;;;;;;6205984;23;20198;-89
2021/08/20 17:17:12;;;;;;;4.32;1.90;;;;;;;;;;6207260;23;20178;-89
2021/08/20 17:20:19;;;;;;;6.43;2.00;;;;;;;;;;6208959;23;20167;-90
2021/08/20 17:23:24;;;;;;;39.13;26.52;;;;;;;;;;6208954;23;20168;-90
2021/08/20 17:26:29;;;;;;;7.25;2.80;;;;;;;;;;6208466;23;20167;-89
2021/08/20 17:29:33;;;;;;;3.35;2.08;;;;;;;;;;6210446;23;20218;-89
2021/08/20 17:32:38;;;;;;;5.32;2.22;;;;;;;;;;6208181;23;20609;-91
2021/08/20 17:35:44;;;;;;;5.20;2.40;;;;;;;;;;6205959;23;20226;-91
2021/08/20 17:38:50;;;;;;;6.45;2.38;;;;;;;;;;6205263;23;20174;-91
2021/08/20 17:41:57;;;;;;;4.72;2.50;;;;;;;;;;6205509;23;20222;-90
2021/08/20 17:45:02;;;;;;;5.13;2.33;;;;;;;;;;6204719;23;20163;-91
2021/08/20 17:48:07;;;;;;;7.53;3.03;;;;;;;;;;6193288;23;20183;-91
2021/08/20 17:51:13;;;;;;;8.75;3.05;;;;;;;;;;6193778;23;20171;-90
2021/08/20 17:54:18;;;;;;;8.27;3.25;;;;;;;;;;6192584;23;20200;-90
2021/08/20 17:57:22;;;;;;;5.82;3.03;;;;;;;;;;6192342;23;20171;-91
2021/08/20 18:00:27;;;;;;;16.63;3.90;;;;;;;;;;6192400;23;20171;-90
2021/08/20 18:03:33;;;;;;;7.45;2.97;;;;;;;;;;6193179;23;20187;-87
2021/08/20 18:06:40;;;;;;;8.48;2.70;;;;;;;;;;6193691;23;20168;-90
2021/08/20 18:09:45;;;;;;;5.15;3.00;;;;;;;;;;6195023;23;20171;-91
2021/08/20 18:12:50;;;;;;;6.50;3.40;;;;;;;;;;6195230;23;20176;-90
2021/08/20 18:15:55;;;;;;;4.43;2.65;;;;;;;;;;6194730;23;20655;-90
2021/08/20 18:19:00;;;;;;;5.47;2.45;;;;;;;;;;6192367;23;20167;-90
2021/08/20 18:22:06;;;;;;;6.88;2.75;;;;;;;;;;6194683;23;20296;-90
2021/08/20 18:25:11;;;;;;;5.43;2.30;;;;;;;;;;6194120;23;20595;-89
2021/08/20 18:28:19;;;;;;;5.70;2.22;;;;;;;;;;6193745;23;20184;-91
2021/08/20 18:31:24;;;;;;;8.43;4.20;;;;;;;;;;6194928;23;20562;-90
2021/08/20 18:34:30;;;;;;;9.55;3.85;;;;;;;;;;6196036;23;20192;-90
2021/08/20 18:37:36;;;;;;;7.45;2.70;;;;;;;;;;6193994;23;20176;-91
2021/08/20 18:40:42;;;;;;;7.03;2.70;;;;;;;;;;6196526;23;20200;-92
2021/08/20 18:43:47;;;;;;;8.32;2.58;;;;;;;;;;6197390;23;20172;-91
2021/08/20 18:46:52;;;;;;;8.35;2.72;;;;;;;;;;6195134;23;20243;-91
2021/08/20 18:49:57;;;;;;;6.95;2.70;;;;;;;;;;6212933;23;20171;-90
2021/08/20 18:53:06;;;;;;;9.32;3.70;;;;;;;;;;6214678;23;20159;-92
2021/08/20 18:56:11;;;;;;;9.48;4.82;;;;;;;;;;6214632;23;20243;-91
2021/08/20 18:59:16;;;;;;;8.57;2.88;;;;;;;;;;6209784;23;20211;-90
2021/08/20 19:02:21;;;;;;;4.47;2.58;;;;;;;;;;6210851;23;20175;-90
2021/08/20 19:05:26;;;;;;;6.13;2.90;;;;;;;;;;6210384;23;20230;-90
2021/08/20 19:08:33;;;;;;;8.43;3.50;;;;;;;;;;6208887;23;20172;-91
2021/08/20 19:11:38;;;;;;;7.68;3.05;;;;;;;;;;6209692;23;20167;-90
2021/08/20 19:14:43;;;;;;;4.63;2.60;;;;;;;;;;6209497;23;20191;-89
2021/08/20 19:17:49;;;;;;;7.80;3.65;;;;;;;;;;6229568;23;20175;-92
2021/08/20 19:20:54;;;;;;;8.75;3.00;;;;;;;;;;6209714;23;20218;-90
2021/08/20 19:24:01;;;;;;;7.20;2.70;;;;;;;;;;6208228;23;20215;-90
2021/08/20 19:27:06;;;;;;;5.78;2.63;;;;;;;;;;6207123;23;20618;-90
2021/08/20 19:30:12;;;;;;;9.68;3.10;;;;;;;;;;6209362;23;20183;-89
2021/08/20 19:33:18;;;;;;;9.13;3.05;;;;;;;;;;6209448;23;20210;-89
2021/08/20 19:36:23;;;;;;;7.18;2.90;;;;;;;;;;6209791;23;20194;-90
2021/08/20 19:39:31;;;;;;;5.78;3.30;;;;;;;;;;6210842;23;20238;-91
2021/08/20 19:42:38;;;;;;;10.55;3.70;;;;;;;;;;6210456;23;20167;-91
2021/08/20 19:45:43;;;;;;;6.15;3.83;;;;;;;;;;6210375;23;20179;-91
2021/08/20 19:48:48;;;;;;;6.32;3.58;;;;;;;;;;6195579;23;20202;-91
2021/08/20 19:51:54;;;;;;;5.65;3.20;;;;;;;;;;6197279;23;20167;-91
2021/08/20 19:55:01;;;;;;;8.13;3.75;;;;;;;;;;6199422;23;20196;-91
2021/08/20 19:58:08;;;;;;;10.13;3.67;;;;;;;;;;6199063;23;20179;-91
2021/08/20 20:01:13;;;;;;;8.52;3.53;;;;;;;;;;6202193;23;20219;-91
2021/08/20 20:04:19;;;;;;;10.60;3.78;;;;;;;;;;6200304;23;20199;-92
2021/08/20 20:07:25;;;;;;;7.55;3.53;;;;;;;;;;6200031;23;20218;-91
2021/08/20 20:10:32;;;;;;;6.82;3.45;;;;;;;;;;6200537;23;20322;-90
2021/08/20 20:13:37;;;;;;;7.82;4.20;;;;;;;;;;6201139;23;20243;-91
2021/08/20 20:16:42;;;;;;;9.02;4.00;;;;;;;;;;6198828;23;20530;-92
2021/08/20 20:19:47;;;;;;;7.18;3.80;;;;;;;;;;6196957;23;20156;-90
2021/08/20 20:22:53;;;;;;;6.57;3.83;;;;;;;;;;6196023;23;20176;-90
2021/08/20 20:26:00;;;;;;;4.65;3.30;;;;;;;;;;6195523;23;20192;-92
2021/08/20 20:32:25;;;;;;;10.05;4.80;;;;;;;;;;6198797;23;20213;-90
2021/08/20 20:35:32;;;;;;;8.13;4.35;;;;;;;;;;6198084;23;20196;-90
2021/08/20 20:38:38;;;;;;;8.15;4.15;;;;;;;;;;6198979;23;20188;-91
2021/08/20 20:41:45;;;;;;;7.70;4.80;;;;;;;;;;6197037;23;20168;-90
2021/08/20 20:44:49;;;;;;;6.88;4.10;;;;;;;;;;6197228;23;20168;-91
2021/08/20 20:47:54;;;;;;;7.22;4.43;;;;;;;;;;6196322;23;20191;-91
2021/08/20 20:51:00;;;;;;;12.43;4.40;;;;;;;;;;6194094;23;20163;-91
2021/08/20 20:54:05;;;;;;;11.40;4.70;;;;;;;;;;6196444;23;20167;-90
2021/08/20 20:57:16;;;;;;;7.82;4.50;;;;;;;;;;6195779;23;20214;-91
2021/08/20 21:00:21;;;;;;;7.82;4.55;;;;;;;;;;6196821;23;20153;-90
2021/08/20 21:03:26;;;;;;;9.02;4.63;;;;;;;;;;6197194;23;20239;-90
2021/08/20 21:06:31;;;;;;;7.75;4.47;;;;;;;;;;6196699;23;20167;-91
2021/08/20 21:09:36;;;;;;;11.30;4.88;;;;;;;;;;6195197;23;20175;-90
2021/08/20 21:12:44;;;;;;;9.63;4.18;;;;;;;;;;6195097;23;20229;-91
2021/08/20 21:19:09;;;;;;;8.27;4.97;;;;;;;;;;6198568;23;20168;-91
2021/08/20 21:22:14;;;;;;;8.15;4.60;;;;;;;;;;6198460;23;20172;-91
2021/08/20 21:25:19;;;;;;;8.40;4.65;;;;;;;;;;6197929;23;20269;-90
2021/08/20 21:28:25;;;;;;;13.13;5.18;;;;;;;;;;6198607;23;20623;-91
2021/08/20 21:31:30;;;;;;;12.05;5.32;;;;;;;;;;6197016;23;20187;-91
2021/08/20 21:34:35;;;;;;;9.27;4.65;;;;;;;;;;6197448;23;20151;-90
2021/08/20 21:37:41;;;;;;;12.40;5.32;;;;;;;;;;6196436;23;20575;-90
2021/08/20 21:40:46;;;;;;;10.82;5.28;;;;;;;;;;6197269;23;20167;-91
2021/08/20 21:43:53;;;;;;;10.30;4.50;;;;;;;;;;6195422;23;20172;-92
2021/08/20 21:46:58;;;;;;;7.55;4.32;;;;;;;;;;6201117;23;20171;-91
2021/08/20 21:50:04;;;;;;;9.57;4.65;;;;;;;;;;6207075;23;20206;-92
2021/08/20 21:53:09;;;;;;;12.07;4.75;;;;;;;;;;6208008;23;20155;-90
2021/08/20 21:56:14;;;;;;;11.45;4.20;;;;;;;;;;6209149;23;20283;-90
2021/08/20 21:59:21;;;;;;;7.15;4.30;;;;;;;;;;6210367;23;20239;-90
2021/08/20 22:02:29;;;;;;;10.80;4.45;;;;;;;;;;6207298;23;20221;-91
2021/08/20 22:05:34;;;;;;;9.27;4.32;;;;;;;;;;6208312;23;20167;-89
2021/08/20 22:08:39;;;;;;;8.63;4.22;;;;;;;;;;6205816;23;20167;-91
2021/08/20 22:11:44;;;;;;;10.07;4.25;;;;;;;;;;6207177;23;20291;-90
2021/08/20 22:14:51;;;;;;;7.93;4.00;;;;;;;;;;6206221;23;20253;-92
2021/08/20 22:17:56;;;;;;;7.68;3.85;;;;;;;;;;6207616;23;20167;-91
2021/08/20 22:21:01;;;;;;;6.40;3.78;;;;;;;;;;6207139;23;20171;-90
2021/08/20 22:24:06;;;;;;;10.25;4.25;;;;;;;;;;6206499;23;20206;-90
2021/08/20 22:27:11;;;;;;;9.52;4.10;;;;;;;;;;6208664;23;20171;-92
2021/08/20 22:30:19;;;;;;;9.52;4.45;;;;;;;;;;6210152;23;20175;-89
2021/08/20 22:33:26;;;;;;;17.60;5.38;;;;;;;;;;6208402;23;20198;-91
2021/08/20 22:36:31;;;;;;;10.90;4.82;;;;;;;;;;6211234;23;20191;-91
2021/08/20 22:39:36;;;;;;;11.48;5.70;;;;;;;;;;6210495;23;20174;-90
2021/08/20 22:42:42;;;;;;;9.70;5.20;;;;;;;;;;6209926;23;20557;-92
2021/08/20 22:45:48;;;;;;;9.15;5.07;;;;;;;;;;6210828;23;20167;-90
2021/08/20 22:48:53;;;;;;;9.65;4.72;;;;;;;;;;6197950;23;20191;-90
2021/08/20 22:51:58;;;;;;;7.85;4.70;;;;;;;;;;6196591;23;20714;-91
2021/08/20 22:55:04;;;;;;;7.60;4.57;;;;;;;;;;6197464;23;20187;-91
2021/08/20 22:58:09;;;;;;;7.88;4.45;;;;;;;;;;6196904;23;20164;-92
2021/08/20 23:01:15;;;;;;;8.30;4.40;;;;;;;;;;6197234;23;20171;-90
2021/08/20 23:04:21;;;;;;;11.68;4.25;;;;;;;;;;6196554;23;20191;-89
2021/08/20 23:07:26;;;;;;;9.40;4.35;;;;;;;;;;6196589;23;20493;-91
2021/08/20 23:10:31;;;;;;;9.00;4.47;;;;;;;;;;6179792;23;20159;-91
2021/08/20 23:13:36;;;;;;;8.35;4.90;;;;;;;;;;6198673;23;20172;-91
2021/08/20 23:16:43;;;;;;;10.85;4.75;;;;;;;;;;6198987;23;20235;-90
2021/08/20 23:19:49;;;;;;;8.52;4.53;;;;;;;;;;6196905;23;20191;-89
2021/08/20 23:22:56;;;;;;;8.38;4.82;;;;;;;;;;6196891;23;20168;-91
2021/08/20 23:26:01;;;;;;;11.75;4.57;;;;;;;;;;6197883;23;20247;-92
2021/08/20 23:29:06;;;;;;;10.57;4.78;;;;;;;;;;6196741;23;20167;-91
2021/08/20 23:32:13;;;;;;;7.80;4.78;;;;;;;;;;6196529;23;20171;-90
2021/08/20 23:35:18;;;;;;;11.38;4.97;;;;;;;;;;6196588;23;20180;-91
2021/08/20 23:38:23;;;;;;;8.90;5.28;;;;;;;;;;6197614;23;20172;-90
2021/08/20 23:41:28;;;;;;;9.10;4.80;;;;;;;;;;6195961;23;20168;-90
2021/08/20 23:44:33;;;;;;;12.07;4.47;;;;;;;;;;6195903;23;20172;-92
2021/08/20 23:47:40;;;;;;;9.73;4.25;;;;;;;;;;6206707;23;20193;-90
2021/08/20 23:50:45;;;;;;;11.18;4.65;;;;;;;;;;6207947;23;20167;-92
2021/08/20 23:53:50;;;;;;;8.88;4.40;;;;;;;;;;6206299;23;20167;-90
2021/08/20 23:56:55;;;;;;;10.75;4.35;;;;;;;;;;6206921;23;20191;-91
